sensor_id;sensor_type;location;lat;lon;timestamp;P1;durP1;ratioP1;P2;durP2;ratioP2
974;SDS011;6115;49.296;10.602;2023-05-13T00:02:33;6.90;;;5.37;;
974;SDS011;6115;49.296;10.602;2023-05-13T00:07:33;5.37;;;4.50;;
974;SDS011;6115;49.296;10.602;2023-05-13T00:12:34;5.67;;;3.70;;
974;SDS011;6115;49.296;10.602;2023-05-13T00:17:35;4.77;;;4.27;;
974;SDS011;6115;49.296;10.602;2023-05-13T00:22:35;5.97;;;4.20;;
974;SDS011;6115;49.296;10.602;2023-05-13T00:27:36;5.93;;;4.73;;
974;SDS011;6115;49.296;10.602;2023-05-13T00:32:36;5.37;;;4.70;;
974;SDS011;6115;49.296;10.602;2023-05-13T00:37:37;4.40;;;4.00;;
974;SDS011;6115;49.296;10.602;2023-05-13T00:42:38;5.80;;;4.93;;
974;SDS011;6115;49.296;10.602;2023-05-13T00:47:41;5.27;;;4.77;;
974;SDS011;6115;49.296;10.602;2023-05-13T00:52:42;5.33;;;4.83;;
974;SDS011;6115;49.296;10.602;2023-05-13T00:57:43;4.73;;;4.33;;
974;SDS011;6115;49.296;10.602;2023-05-13T01:02:46;6.27;;;4.50;;
974;SDS011;6115;49.296;10.602;2023-05-13T01:08:01;6.00;;;5.33;;
974;SDS011;6115;49.296;10.602;2023-05-13T01:13:10;4.97;;;4.47;;
974;SDS011;6115;49.296;10.602;2023-05-13T01:18:14;7.00;;;5.17;;
974;SDS011;6115;49.296;10.602;2023-05-13T01:23:19;8.10;;;4.83;;
974;SDS011;6115;49.296;10.602;2023-05-13T01:28:19;6.13;;;4.83;;
974;SDS011;6115;49.296;10.602;2023-05-13T01:33:20;5.17;;;4.67;;
974;SDS011;6115;49.296;10.602;2023-05-13T01:38:21;15.90;;;6.33;;
974;SDS011;6115;49.296;10.602;2023-05-13T01:43:22;6.53;;;4.63;;
974;SDS011;6115;49.296;10.602;2023-05-13T01:48:22;5.90;;;5.30;;
974;SDS011;6115;49.296;10.602;2023-05-13T01:53:23;7.37;;;5.50;;
974;SDS011;6115;49.296;10.602;2023-05-13T01:58:24;6.60;;;5.00;;
974;SDS011;6115;49.296;10.602;2023-05-13T02:03:24;5.97;;;5.00;;
974;SDS011;6115;49.296;10.602;2023-05-13T02:08:25;7.90;;;5.23;;
974;SDS011;6115;49.296;10.602;2023-05-13T02:13:26;8.03;;;5.00;;
974;SDS011;6115;49.296;10.602;2023-05-13T02:18:27;6.43;;;5.00;;
974;SDS011;6115;49.296;10.602;2023-05-13T02:23:27;6.73;;;5.90;;
974;SDS011;6115;49.296;10.602;2023-05-13T02:28:28;6.40;;;5.63;;
974;SDS011;6115;49.296;10.602;2023-05-13T02:33:28;5.67;;;5.17;;
974;SDS011;6115;49.296;10.602;2023-05-13T02:38:32;7.53;;;5.00;;
974;SDS011;6115;49.296;10.602;2023-05-13T02:43:32;6.33;;;5.07;;
974;SDS011;6115;49.296;10.602;2023-05-13T02:48:33;7.77;;;4.70;;
974;SDS011;6115;49.296;10.602;2023-05-13T02:53:33;7.07;;;5.50;;
974;SDS011;6115;49.296;10.602;2023-05-13T02:58:34;6.90;;;6.20;;
974;SDS011;6115;49.296;10.602;2023-05-13T03:03:35;7.00;;;6.23;;
974;SDS011;6115;49.296;10.602;2023-05-13T03:08:36;8.53;;;5.97;;
974;SDS011;6115;49.296;10.602;2023-05-13T03:13:36;9.07;;;7.50;;
974;SDS011;6115;49.296;10.602;2023-05-13T03:18:37;7.27;;;6.10;;
974;SDS011;6115;49.296;10.602;2023-05-13T03:23:37;8.83;;;7.63;;
974;SDS011;6115;49.296;10.602;2023-05-13T03:28:38;7.43;;;6.67;;
974;SDS011;6115;49.296;10.602;2023-05-13T03:33:38;7.13;;;6.40;;
974;SDS011;6115;49.296;10.602;2023-05-13T03:38:39;6.53;;;5.93;;
974;SDS011;6115;49.296;10.602;2023-05-13T03:43:40;10.50;;;6.97;;
974;SDS011;6115;49.296;10.602;2023-05-13T03:48:40;8.30;;;7.03;;
974;SDS011;6115;49.296;10.602;2023-05-13T03:53:41;8.83;;;7.23;;
974;SDS011;6115;49.296;10.602;2023-05-13T03:58:42;8.33;;;6.80;;
974;SDS011;6115;49.296;10.602;2023-05-13T04:03:42;8.10;;;7.10;;
974;SDS011;6115;49.296;10.602;2023-05-13T04:08:45;11.03;;;7.10;;
974;SDS011;6115;49.296;10.602;2023-05-13T04:13:45;8.33;;;7.43;;
974;SDS011;6115;49.296;10.602;2023-05-13T04:18:46;9.60;;;6.90;;
974;SDS011;6115;49.296;10.602;2023-05-13T04:23:47;7.80;;;7.00;;
974;SDS011;6115;49.296;10.602;2023-05-13T04:28:47;8.33;;;7.20;;
974;SDS011;6115;49.296;10.602;2023-05-13T04:33:48;7.90;;;6.83;;
974;SDS011;6115;49.296;10.602;2023-05-13T04:38:48;8.07;;;7.13;;
974;SDS011;6115;49.296;10.602;2023-05-13T04:43:50;7.50;;;6.80;;
974;SDS011;6115;49.296;10.602;2023-05-13T04:48:50;11.60;;;7.00;;
974;SDS011;6115;49.296;10.602;2023-05-13T04:53:51;10.50;;;7.80;;
974;SDS011;6115;49.296;10.602;2023-05-13T04:58:51;9.27;;;7.57;;
974;SDS011;6115;49.296;10.602;2023-05-13T05:03:52;7.40;;;6.53;;
974;SDS011;6115;49.296;10.602;2023-05-13T05:08:52;7.80;;;7.00;;
974;SDS011;6115;49.296;10.602;2023-05-13T05:13:53;9.50;;;7.37;;
974;SDS011;6115;49.296;10.602;2023-05-13T05:18:54;10.20;;;8.57;;
974;SDS011;6115;49.296;10.602;2023-05-13T05:23:55;10.60;;;7.73;;
974;SDS011;6115;49.296;10.602;2023-05-13T05:28:55;7.83;;;6.57;;
974;SDS011;6115;49.296;10.602;2023-05-13T05:33:56;8.27;;;6.60;;
974;SDS011;6115;49.296;10.602;2023-05-13T05:38:58;7.10;;;6.40;;
974;SDS011;6115;49.296;10.602;2023-05-13T05:43:58;7.23;;;6.47;;
974;SDS011;6115;49.296;10.602;2023-05-13T05:48:59;7.80;;;5.93;;
974;SDS011;6115;49.296;10.602;2023-05-13T05:54:01;6.50;;;5.90;;
974;SDS011;6115;49.296;10.602;2023-05-13T05:59:02;6.50;;;5.90;;
974;SDS011;6115;49.296;10.602;2023-05-13T06:04:02;6.63;;;5.83;;
974;SDS011;6115;49.296;10.602;2023-05-13T06:09:03;7.60;;;6.60;;
974;SDS011;6115;49.296;10.602;2023-05-13T06:14:04;6.10;;;5.50;;
974;SDS011;6115;49.296;10.602;2023-05-13T06:19:05;6.37;;;5.33;;
974;SDS011;6115;49.296;10.602;2023-05-13T06:24:06;7.23;;;6.20;;
974;SDS011;6115;49.296;10.602;2023-05-13T06:29:06;6.03;;;5.53;;
974;SDS011;6115;49.296;10.602;2023-05-13T06:34:07;8.47;;;6.23;;
974;SDS011;6115;49.296;10.602;2023-05-13T06:39:10;6.67;;;5.73;;
974;SDS011;6115;49.296;10.602;2023-05-13T06:44:11;7.60;;;5.87;;
974;SDS011;6115;49.296;10.602;2023-05-13T06:49:17;9.23;;;6.87;;
974;SDS011;6115;49.296;10.602;2023-05-13T06:54:18;9.33;;;7.70;;
974;SDS011;6115;49.296;10.602;2023-05-13T06:59:18;7.37;;;6.00;;
974;SDS011;6115;49.296;10.602;2023-05-13T07:04:20;10.27;;;6.23;;
974;SDS011;6115;49.296;10.602;2023-05-13T07:09:21;6.70;;;6.00;;
974;SDS011;6115;49.296;10.602;2023-05-13T07:14:21;8.83;;;6.67;;
974;SDS011;6115;49.296;10.602;2023-05-13T07:19:24;8.20;;;6.00;;
974;SDS011;6115;49.296;10.602;2023-05-13T07:24:24;7.00;;;6.30;;
974;SDS011;6115;49.296;10.602;2023-05-13T07:29:25;7.37;;;6.07;;
974;SDS011;6115;49.296;10.602;2023-05-13T07:34:26;6.47;;;5.83;;
974;SDS011;6115;49.296;10.602;2023-05-13T07:39:26;6.63;;;5.80;;
974;SDS011;6115;49.296;10.602;2023-05-13T07:44:27;6.60;;;6.00;;
974;SDS011;6115;49.296;10.602;2023-05-13T07:49:27;6.83;;;6.23;;
974;SDS011;6115;49.296;10.602;2023-05-13T07:54:28;6.40;;;5.80;;
974;SDS011;6115;49.296;10.602;2023-05-13T07:59:28;6.07;;;5.47;;
974;SDS011;6115;49.296;10.602;2023-05-13T08:04:29;6.47;;;5.77;;
974;SDS011;6115;49.296;10.602;2023-05-13T08:09:30;6.97;;;5.00;;
974;SDS011;6115;49.296;10.602;2023-05-13T08:14:30;6.00;;;5.47;;
974;SDS011;6115;49.296;10.602;2023-05-13T08:19:31;6.00;;;5.50;;
974;SDS011;6115;49.296;10.602;2023-05-13T08:24:31;5.90;;;5.40;;
974;SDS011;6115;49.296;10.602;2023-05-13T08:29:32;5.90;;;5.30;;
974;SDS011;6115;49.296;10.602;2023-05-13T08:34:35;5.83;;;5.23;;
974;SDS011;6115;49.296;10.602;2023-05-13T08:39:36;6.00;;;5.40;;
974;SDS011;6115;49.296;10.602;2023-05-13T08:44:38;6.67;;;4.60;;
974;SDS011;6115;49.296;10.602;2023-05-13T08:49:42;5.30;;;4.43;;
974;SDS011;6115;49.296;10.602;2023-05-13T08:54:44;5.20;;;4.33;;
974;SDS011;6115;49.296;10.602;2023-05-13T08:59:46;5.33;;;4.53;;
974;SDS011;6115;49.296;10.602;2023-05-13T09:04:47;5.30;;;4.67;;
974;SDS011;6115;49.296;10.602;2023-05-13T09:09:52;8.50;;;5.10;;
974;SDS011;6115;49.296;10.602;2023-05-13T09:14:53;5.60;;;5.10;;
974;SDS011;6115;49.296;10.602;2023-05-13T09:19:54;5.13;;;4.63;;
974;SDS011;6115;49.296;10.602;2023-05-13T09:24:55;8.23;;;5.63;;
974;SDS011;6115;49.296;10.602;2023-05-13T09:29:59;5.30;;;4.80;;
974;SDS011;6115;49.296;10.602;2023-05-13T09:35:09;6.43;;;5.03;;
974;SDS011;6115;49.296;10.602;2023-05-13T09:40:16;10.23;;;4.63;;
974;SDS011;6115;49.296;10.602;2023-05-13T09:45:16;5.67;;;5.07;;
974;SDS011;6115;49.296;10.602;2023-05-13T09:50:17;4.80;;;3.83;;
974;SDS011;6115;49.296;10.602;2023-05-13T09:55:18;4.60;;;4.20;;
974;SDS011;6115;49.296;10.602;2023-05-13T10:00:18;4.67;;;4.20;;
974;SDS011;6115;49.296;10.602;2023-05-13T10:05:19;4.07;;;3.60;;
974;SDS011;6115;49.296;10.602;2023-05-13T10:10:21;4.40;;;4.00;;
974;SDS011;6115;49.296;10.602;2023-05-13T10:15:21;4.70;;;4.30;;
974;SDS011;6115;49.296;10.602;2023-05-13T10:20:23;4.57;;;4.13;;
974;SDS011;6115;49.296;10.602;2023-05-13T10:25:25;4.43;;;4.03;;
974;SDS011;6115;49.296;10.602;2023-05-13T10:30:26;5.57;;;4.33;;
974;SDS011;6115;49.296;10.602;2023-05-13T10:35:31;7.63;;;4.10;;
974;SDS011;6115;49.296;10.602;2023-05-13T10:40:51;4.30;;;3.90;;
974;SDS011;6115;49.296;10.602;2023-05-13T10:46:10;5.10;;;4.60;;
974;SDS011;6115;49.296;10.602;2023-05-13T10:51:12;4.40;;;4.00;;
974;SDS011;6115;49.296;10.602;2023-05-13T10:56:14;4.63;;;4.20;;
974;SDS011;6115;49.296;10.602;2023-05-13T11:01:24;4.27;;;3.87;;
974;SDS011;6115;49.296;10.602;2023-05-13T11:06:32;3.87;;;3.57;;
974;SDS011;6115;49.296;10.602;2023-05-13T11:11:36;3.40;;;3.10;;
974;SDS011;6115;49.296;10.602;2023-05-13T11:16:37;3.70;;;3.37;;
974;SDS011;6115;49.296;10.602;2023-05-13T11:21:45;3.87;;;3.50;;
974;SDS011;6115;49.296;10.602;2023-05-13T11:26:53;3.90;;;3.53;;
974;SDS011;6115;49.296;10.602;2023-05-13T11:31:56;4.57;;;3.37;;
974;SDS011;6115;49.296;10.602;2023-05-13T11:42:07;4.43;;;3.37;;
974;SDS011;6115;49.296;10.602;2023-05-13T11:47:09;4.97;;;3.50;;
974;SDS011;6115;49.296;10.602;2023-05-13T11:52:10;3.80;;;3.50;;
974;SDS011;6115;49.296;10.602;2023-05-13T11:57:23;4.80;;;2.73;;
974;SDS011;6115;49.296;10.602;2023-05-13T12:02:28;3.53;;;3.23;;
974;SDS011;6115;49.296;10.602;2023-05-13T12:07:30;4.13;;;2.80;;
974;SDS011;6115;49.296;10.602;2023-05-13T12:12:32;3.00;;;2.73;;
974;SDS011;6115;49.296;10.602;2023-05-13T12:17:34;4.83;;;3.30;;
974;SDS011;6115;49.296;10.602;2023-05-13T12:22:56;3.20;;;2.90;;
974;SDS011;6115;49.296;10.602;2023-05-13T12:27:56;3.10;;;2.83;;
974;SDS011;6115;49.296;10.602;2023-05-13T12:32:57;4.83;;;3.17;;
974;SDS011;6115;49.296;10.602;2023-05-13T12:37:59;3.50;;;2.90;;
974;SDS011;6115;49.296;10.602;2023-05-13T12:43:03;3.30;;;3.00;;
974;SDS011;6115;49.296;10.602;2023-05-13T12:48:04;3.40;;;3.10;;
974;SDS011;6115;49.296;10.602;2023-05-13T12:53:04;3.70;;;3.40;;
974;SDS011;6115;49.296;10.602;2023-05-13T12:58:05;2.87;;;2.60;;
974;SDS011;6115;49.296;10.602;2023-05-13T13:03:06;3.20;;;2.90;;
974;SDS011;6115;49.296;10.602;2023-05-13T13:08:07;3.70;;;3.40;;
974;SDS011;6115;49.296;10.602;2023-05-13T13:13:08;3.07;;;2.80;;
974;SDS011;6115;49.296;10.602;2023-05-13T13:18:08;3.33;;;2.80;;
974;SDS011;6115;49.296;10.602;2023-05-13T13:23:12;3.50;;;3.20;;
974;SDS011;6115;49.296;10.602;2023-05-13T13:28:15;3.90;;;3.13;;
974;SDS011;6115;49.296;10.602;2023-05-13T13:33:15;2.97;;;2.77;;
974;SDS011;6115;49.296;10.602;2023-05-13T13:38:17;3.03;;;2.73;;
974;SDS011;6115;49.296;10.602;2023-05-13T13:43:18;3.30;;;2.80;;
974;SDS011;6115;49.296;10.602;2023-05-13T13:48:18;3.83;;;3.20;;
974;SDS011;6115;49.296;10.602;2023-05-13T13:53:20;5.33;;;2.80;;
974;SDS011;6115;49.296;10.602;2023-05-13T13:58:21;2.47;;;2.20;;
974;SDS011;6115;49.296;10.602;2023-05-13T14:03:22;4.37;;;3.97;;
974;SDS011;6115;49.296;10.602;2023-05-13T14:08:23;3.27;;;2.70;;
974;SDS011;6115;49.296;10.602;2023-05-13T14:13:23;3.33;;;2.80;;
974;SDS011;6115;49.296;10.602;2023-05-13T14:18:24;3.50;;;3.13;;
974;SDS011;6115;49.296;10.602;2023-05-13T14:23:25;2.90;;;2.70;;
974;SDS011;6115;49.296;10.602;2023-05-13T14:28:26;2.97;;;2.67;;
974;SDS011;6115;49.296;10.602;2023-05-13T14:33:27;4.23;;;2.67;;
974;SDS011;6115;49.296;10.602;2023-05-13T14:38:27;2.50;;;2.30;;
974;SDS011;6115;49.296;10.602;2023-05-13T14:43:28;2.73;;;2.53;;
974;SDS011;6115;49.296;10.602;2023-05-13T14:48:28;2.50;;;2.30;;
974;SDS011;6115;49.296;10.602;2023-05-13T14:53:29;2.10;;;1.90;;
974;SDS011;6115;49.296;10.602;2023-05-13T14:58:30;2.80;;;2.17;;
974;SDS011;6115;49.296;10.602;2023-05-13T15:03:31;2.27;;;2.07;;
974;SDS011;6115;49.296;10.602;2023-05-13T15:08:32;2.90;;;1.97;;
974;SDS011;6115;49.296;10.602;2023-05-13T15:13:32;3.63;;;2.33;;
974;SDS011;6115;49.296;10.602;2023-05-13T15:18:34;2.90;;;2.20;;
974;SDS011;6115;49.296;10.602;2023-05-13T15:23:34;3.60;;;2.97;;
974;SDS011;6115;49.296;10.602;2023-05-13T15:28:35;3.93;;;3.43;;
974;SDS011;6115;49.296;10.602;2023-05-13T15:33:35;2.53;;;2.33;;
974;SDS011;6115;49.296;10.602;2023-05-13T15:38:36;3.10;;;2.90;;
974;SDS011;6115;49.296;10.602;2023-05-13T15:43:37;3.27;;;3.00;;
974;SDS011;6115;49.296;10.602;2023-05-13T15:48:38;3.20;;;2.90;;
974;SDS011;6115;49.296;10.602;2023-05-13T15:53:38;3.20;;;2.90;;
974;SDS011;6115;49.296;10.602;2023-05-13T15:58:39;2.43;;;2.23;;
974;SDS011;6115;49.296;10.602;2023-05-13T16:03:39;6.80;;;3.00;;
974;SDS011;6115;49.296;10.602;2023-05-13T16:08:40;2.90;;;2.70;;
974;SDS011;6115;49.296;10.602;2023-05-13T16:13:40;3.07;;;2.77;;
974;SDS011;6115;49.296;10.602;2023-05-13T16:18:41;2.93;;;2.73;;
974;SDS011;6115;49.296;10.602;2023-05-13T16:23:42;2.93;;;2.70;;
974;SDS011;6115;49.296;10.602;2023-05-13T16:28:42;3.30;;;3.00;;
974;SDS011;6115;49.296;10.602;2023-05-13T16:33:43;3.60;;;2.93;;
974;SDS011;6115;49.296;10.602;2023-05-13T16:38:43;3.13;;;2.83;;
974;SDS011;6115;49.296;10.602;2023-05-13T16:43:45;2.57;;;2.37;;
974;SDS011;6115;49.296;10.602;2023-05-13T16:48:46;2.57;;;2.37;;
974;SDS011;6115;49.296;10.602;2023-05-13T16:53:46;2.43;;;2.23;;
974;SDS011;6115;49.296;10.602;2023-05-13T16:58:47;3.67;;;2.60;;
974;SDS011;6115;49.296;10.602;2023-05-13T17:03:47;3.03;;;2.73;;
974;SDS011;6115;49.296;10.602;2023-05-13T17:08:48;2.83;;;2.63;;
974;SDS011;6115;49.296;10.602;2023-05-13T17:13:48;4.00;;;2.77;;
974;SDS011;6115;49.296;10.602;2023-05-13T17:18:49;2.83;;;2.63;;
974;SDS011;6115;49.296;10.602;2023-05-13T17:23:49;2.90;;;2.70;;
974;SDS011;6115;49.296;10.602;2023-05-13T17:28:50;5.67;;;5.07;;
974;SDS011;6115;49.296;10.602;2023-05-13T17:33:51;3.23;;;2.97;;
974;SDS011;6115;49.296;10.602;2023-05-13T17:38:52;2.77;;;2.57;;
974;SDS011;6115;49.296;10.602;2023-05-13T17:43:52;3.27;;;2.97;;
974;SDS011;6115;49.296;10.602;2023-05-13T17:48:53;2.60;;;2.40;;
974;SDS011;6115;49.296;10.602;2023-05-13T17:53:56;2.97;;;2.67;;
974;SDS011;6115;49.296;10.602;2023-05-13T17:58:57;3.10;;;2.80;;
974;SDS011;6115;49.296;10.602;2023-05-13T18:03:57;4.43;;;4.03;;
974;SDS011;6115;49.296;10.602;2023-05-13T18:08:58;5.80;;;4.47;;
974;SDS011;6115;49.296;10.602;2023-05-13T18:13:58;4.03;;;3.50;;
974;SDS011;6115;49.296;10.602;2023-05-13T18:18:59;3.63;;;2.60;;
974;SDS011;6115;49.296;10.602;2023-05-13T18:23:59;3.10;;;2.80;;
974;SDS011;6115;49.296;10.602;2023-05-13T18:29:00;4.50;;;3.37;;
974;SDS011;6115;49.296;10.602;2023-05-13T18:34:01;3.23;;;2.93;;
974;SDS011;6115;49.296;10.602;2023-05-13T18:39:02;3.37;;;3.07;;
974;SDS011;6115;49.296;10.602;2023-05-13T18:44:03;5.30;;;3.40;;
974;SDS011;6115;49.296;10.602;2023-05-13T18:49:03;3.80;;;2.97;;
974;SDS011;6115;49.296;10.602;2023-05-13T18:54:04;4.57;;;3.60;;
974;SDS011;6115;49.296;10.602;2023-05-13T18:59:05;3.10;;;2.80;;
974;SDS011;6115;49.296;10.602;2023-05-13T19:04:05;3.20;;;2.90;;
974;SDS011;6115;49.296;10.602;2023-05-13T19:09:06;4.97;;;3.37;;
974;SDS011;6115;49.296;10.602;2023-05-13T19:14:07;4.00;;;3.60;;
974;SDS011;6115;49.296;10.602;2023-05-13T19:19:07;6.43;;;3.60;;
974;SDS011;6115;49.296;10.602;2023-05-13T19:24:08;4.20;;;3.77;;
974;SDS011;6115;49.296;10.602;2023-05-13T19:29:08;7.37;;;4.57;;
974;SDS011;6115;49.296;10.602;2023-05-13T19:34:09;4.00;;;3.43;;
974;SDS011;6115;49.296;10.602;2023-05-13T19:39:10;5.20;;;4.70;;
974;SDS011;6115;49.296;10.602;2023-05-13T19:44:11;5.13;;;4.63;;
974;SDS011;6115;49.296;10.602;2023-05-13T19:49:12;7.80;;;4.90;;
974;SDS011;6115;49.296;10.602;2023-05-13T19:54:12;5.10;;;4.60;;
974;SDS011;6115;49.296;10.602;2023-05-13T19:59:13;5.63;;;5.13;;
974;SDS011;6115;49.296;10.602;2023-05-13T20:04:14;5.80;;;5.20;;
974;SDS011;6115;49.296;10.602;2023-05-13T20:09:15;6.77;;;5.90;;
974;SDS011;6115;49.296;10.602;2023-05-13T20:14:19;6.77;;;5.90;;
974;SDS011;6115;49.296;10.602;2023-05-13T20:19:26;8.30;;;5.30;;
974;SDS011;6115;49.296;10.602;2023-05-13T20:24:27;6.50;;;5.80;;
974;SDS011;6115;49.296;10.602;2023-05-13T20:29:32;5.53;;;4.93;;
974;SDS011;6115;49.296;10.602;2023-05-13T20:34:34;7.90;;;5.63;;
974;SDS011;6115;49.296;10.602;2023-05-13T20:39:35;6.83;;;6.10;;
974;SDS011;6115;49.296;10.602;2023-05-13T20:44:37;10.90;;;9.63;;
974;SDS011;6115;49.296;10.602;2023-05-13T20:49:37;10.67;;;8.10;;
974;SDS011;6115;49.296;10.602;2023-05-13T20:54:38;10.30;;;8.40;;
974;SDS011;6115;49.296;10.602;2023-05-13T20:59:39;8.40;;;7.60;;
974;SDS011;6115;49.296;10.602;2023-05-13T21:04:39;10.43;;;8.30;;
974;SDS011;6115;49.296;10.602;2023-05-13T21:09:40;11.40;;;9.90;;
974;SDS011;6115;49.296;10.602;2023-05-13T21:14:40;9.80;;;8.80;;
974;SDS011;6115;49.296;10.602;2023-05-13T21:19:41;9.50;;;7.70;;
974;SDS011;6115;49.296;10.602;2023-05-13T21:24:42;9.23;;;7.77;;
974;SDS011;6115;49.296;10.602;2023-05-13T21:29:42;8.80;;;7.70;;
974;SDS011;6115;49.296;10.602;2023-05-13T21:34:44;10.70;;;8.43;;
974;SDS011;6115;49.296;10.602;2023-05-13T21:39:44;11.23;;;8.50;;
974;SDS011;6115;49.296;10.602;2023-05-13T21:44:45;10.77;;;9.33;;
974;SDS011;6115;49.296;10.602;2023-05-13T21:49:45;9.70;;;8.70;;
974;SDS011;6115;49.296;10.602;2023-05-13T21:54:46;10.27;;;9.07;;
974;SDS011;6115;49.296;10.602;2023-05-13T21:59:46;10.93;;;8.27;;
974;SDS011;6115;49.296;10.602;2023-05-13T22:04:47;11.57;;;8.77;;
974;SDS011;6115;49.296;10.602;2023-05-13T22:09:48;8.70;;;7.80;;
974;SDS011;6115;49.296;10.602;2023-05-13T22:14:48;9.80;;;8.37;;
974;SDS011;6115;49.296;10.602;2023-05-13T22:19:49;9.83;;;8.63;;
974;SDS011;6115;49.296;10.602;2023-05-13T22:24:49;10.07;;;9.00;;
974;SDS011;6115;49.296;10.602;2023-05-13T22:29:50;12.47;;;9.97;;
974;SDS011;6115;49.296;10.602;2023-05-13T22:34:50;9.53;;;8.23;;
974;SDS011;6115;49.296;10.602;2023-05-13T22:39:51;12.90;;;8.00;;
974;SDS011;6115;49.296;10.602;2023-05-13T22:44:51;9.27;;;8.27;;
974;SDS011;6115;49.296;10.602;2023-05-13T22:49:52;9.63;;;7.80;;
974;SDS011;6115;49.296;10.602;2023-05-13T22:54:53;11.40;;;8.80;;
974;SDS011;6115;49.296;10.602;2023-05-13T22:59:53;12.10;;;8.40;;
974;SDS011;6115;49.296;10.602;2023-05-13T23:04:54;11.07;;;8.70;;
974;SDS011;6115;49.296;10.602;2023-05-13T23:09:54;9.47;;;8.47;;
974;SDS011;6115;49.296;10.602;2023-05-13T23:14:55;14.17;;;9.80;;
974;SDS011;6115;49.296;10.602;2023-05-13T23:19:56;11.23;;;8.93;;
974;SDS011;6115;49.296;10.602;2023-05-13T23:24:56;11.57;;;9.50;;
974;SDS011;6115;49.296;10.602;2023-05-13T23:29:57;13.00;;;7.97;;
974;SDS011;6115;49.296;10.602;2023-05-13T23:34:58;12.43;;;8.37;;
974;SDS011;6115;49.296;10.602;2023-05-13T23:39:58;12.53;;;8.43;;
974;SDS011;6115;49.296;10.602;2023-05-13T23:45:01;11.77;;;9.57;;
974;SDS011;6115;49.296;10.602;2023-05-13T23:50:01;11.97;;;9.50;;
974;SDS011;6115;49.296;10.602;2023-05-13T23:55:02;13.20;;;9.40;;
